Time;durP1;ratioP1;P1;durP2;ratioP2;P2;SDS_P1;SDS_P2;PMS_P1;PMS_P2;Temp;Humidity;BMP_temperature;BMP_pressure;BME280_temperature;BME280_humidity;BME280_pressure;Samples;Min_cycle;Max_cycle;Signal;HPM_P1;HPM_P2
2022/04/03 00:03:47;;;;;;;17.60;10.90;;;;;;;2.78;66.15;98274.27;233657;1217;138065;-58
2022/04/03 00:08:50;;;;;;;18.30;11.80;;;;;;;2.79;66.33;98273.69;233543;1216;139623;-60
2022/04/03 00:13:55;;;;;;;24.60;15.00;;;;;;;2.85;66.24;98273.94;233193;1217;138967;-59
2022/04/03 00:18:58;;;;;;;27.70;15.60;;;;;;;2.90;66.07;98273.05;233214;1217;138736;-60
2022/04/03 00:24:03;;;;;;;30.10;17.00;;;;;;;2.90;65.77;98269.21;233491;1217;138547;-56
2022/04/03 00:29:06;;;;;;;28.30;16.90;;;;;;;2.87;65.65;98267.58;233331;1217;139419;-58
2022/04/03 00:34:09;;;;;;;29.20;17.00;;;;;;;2.88;65.47;98269.78;233567;1216;139020;-60
2022/04/03 00:39:12;;;;;;;28.60;17.30;;;;;;;2.90;65.37;98271.13;233470;1217;138651;-59
2022/04/03 00:44:17;;;;;;;23.10;14.90;;;;;;;2.87;65.03;98280.34;233345;1215;138930;-59
2022/04/03 00:49:21;;;;;;;23.50;14.60;;;;;;;2.81;64.91;98277.83;233335;1217;138639;-58
2022/04/03 00:54:24;;;;;;;27.10;13.20;;;;;;;2.73;64.69;98278.52;233362;1217;138735;-58
2022/04/03 00:59:28;;;;;;;20.50;12.40;;;;;;;2.68;64.48;98276.80;233393;1217;138196;-57
2022/04/03 01:04:31;;;;;;;21.10;11.90;;;;;;;2.61;64.49;98286.36;233475;1217;138972;-58
2022/04/03 01:09:34;;;;;;;21.50;11.10;;;;;;;2.54;64.44;98285.05;233307;1217;140684;-58
2022/04/03 01:14:40;;;;;;;17.40;10.20;;;;;;;2.50;64.45;98284.55;233378;1217;139790;-59
2022/04/03 01:19:43;;;;;;;18.70;11.10;;;;;;;2.45;64.36;98286.16;233308;1215;139536;-59
2022/04/03 01:24:47;;;;;;;17.20;9.20;;;;;;;2.39;64.23;98287.27;233327;1217;138778;-59
2022/04/03 01:29:52;;;;;;;16.20;8.40;;;;;;;2.35;64.19;98288.85;233480;1216;138744;-58
2022/04/03 01:34:56;;;;;;;16.20;8.80;;;;;;;2.31;64.31;98292.67;233409;1217;138470;-59
2022/04/03 01:39:58;;;;;;;15.80;7.80;;;;;;;2.25;64.16;98291.69;233339;1217;138732;-60
2022/04/03 01:45:02;;;;;;;15.20;7.70;;;;;;;2.24;64.19;98293.65;233432;1215;139278;-58
2022/04/03 01:50:07;;;;;;;16.30;8.10;;;;;;;2.27;64.06;98298.61;233307;1217;141726;-59
2022/04/03 01:55:10;;;;;;;16.30;7.30;;;;;;;2.29;64.03;98296.98;233255;1217;138733;-57
2022/04/03 02:00:14;;;;;;;12.90;7.70;;;;;;;2.28;64.03;98298.75;233300;1217;138767;-61
2022/04/03 02:05:17;;;;;;;12.90;6.80;;;;;;;2.27;63.76;98304.40;233391;1217;138851;-61
2022/04/03 02:10:20;;;;;;;17.00;6.70;;;;;;;2.26;63.75;98305.15;233416;1217;137972;-55
2022/04/03 02:15:24;;;;;;;14.80;6.70;;;;;;;2.23;63.65;98308.58;233442;1217;138604;-59
2022/04/03 02:20:27;;;;;;;12.20;5.60;;;;;;;2.18;63.46;98311.42;233411;1217;140215;-60
2022/04/03 02:25:30;;;;;;;12.30;5.60;;;;;;;2.13;63.52;98314.91;233329;1217;138275;-59
2022/04/03 02:30:33;;;;;;;12.10;5.80;;;;;;;2.08;63.32;98316.88;233415;1217;138675;-58
2022/04/03 02:35:36;;;;;;;11.10;5.90;;;;;;;2.02;63.25;98318.16;233271;1216;138616;-58
2022/04/03 02:40:39;;;;;;;10.60;5.70;;;;;;;1.97;63.33;98323.78;233185;1217;138400;-59
2022/04/03 02:45:42;;;;;;;10.30;5.30;;;;;;;1.93;63.29;98321.14;233448;1217;138446;-57
2022/04/03 02:50:45;;;;;;;11.70;5.50;;;;;;;1.90;63.20;98328.59;233308;1217;138959;-57
2022/04/03 02:55:48;;;;;;;9.30;5.60;;;;;;;1.90;63.36;98330.70;233359;1217;138366;-58
2022/04/03 03:00:51;;;;;;;10.30;5.30;;;;;;;1.86;63.22;98333.64;233597;1216;138123;-57
2022/04/03 03:05:54;;;;;;;10.50;4.70;;;;;;;1.83;63.23;98338.31;233292;1217;138295;-56
2022/04/03 03:10:57;;;;;;;12.80;5.10;;;;;;;1.80;63.21;98342.63;233382;1217;138728;-55
2022/04/03 03:16:01;;;;;;;10.00;5.00;;;;;;;1.79;63.06;98341.09;233449;1217;139602;-58
2022/04/03 03:21:04;;;;;;;12.50;4.70;;;;;;;1.78;63.07;98347.44;233362;1217;138490;-58
2022/04/03 03:26:07;;;;;;;12.60;5.20;;;;;;;1.74;62.98;98354.92;233469;1217;138478;-57
2022/04/03 03:31:10;;;;;;;9.10;4.80;;;;;;;1.71;63.00;98357.30;233402;1216;138855;-57
2022/04/03 03:36:14;;;;;;;9.50;4.60;;;;;;;1.73;62.88;98361.41;233231;1217;138564;-57
2022/04/03 03:41:17;;;;;;;9.90;4.80;;;;;;;1.77;62.71;98365.51;233234;1217;138896;-59
2022/04/03 03:46:20;;;;;;;12.20;5.90;;;;;;;1.78;62.66;98374.52;233357;1217;138369;-61
2022/04/03 03:51:23;;;;;;;9.00;4.90;;;;;;;1.78;62.52;98381.88;233265;1217;140142;-60
2022/04/03 03:56:27;;;;;;;11.30;5.00;;;;;;;1.75;62.27;98390.89;233296;1217;138285;-57
2022/04/03 04:01:30;;;;;;;9.30;4.70;;;;;;;1.70;62.20;98395.61;233340;1217;138908;-60
2022/04/03 04:06:33;;;;;;;8.80;5.20;;;;;;;1.65;62.17;98396.17;233110;1217;138586;-60
2022/04/03 04:11:36;;;;;;;8.60;5.10;;;;;;;1.59;61.97;98402.83;233419;1216;137802;-60
2022/04/03 04:16:39;;;;;;;11.70;5.00;;;;;;;1.54;61.93;98407.23;233361;1217;138769;-58
2022/04/03 04:21:43;;;;;;;10.70;4.70;;;;;;;1.49;61.97;98418.93;233435;1216;138644;-59
2022/04/03 04:26:46;;;;;;;9.50;4.80;;;;;;;1.45;61.88;98422.41;233234;1217;138866;-59
2022/04/03 04:31:49;;;;;;;7.80;4.70;;;;;;;1.39;61.92;98425.92;233267;1217;138651;-58
2022/04/03 04:36:52;;;;;;;9.20;5.00;;;;;;;1.37;62.00;98437.34;233303;1215;138509;-59
2022/04/03 04:41:55;;;;;;;10.50;4.90;;;;;;;1.38;61.94;98444.14;233317;1217;138934;-59
2022/04/03 04:46:58;;;;;;;8.60;4.60;;;;;;;1.40;62.07;98454.02;233282;1217;138127;-60
2022/04/03 04:52:03;;;;;;;8.40;4.80;;;;;;;1.43;61.99;98457.41;233464;1217;138452;-60
2022/04/03 04:57:06;;;;;;;10.70;5.30;;;;;;;1.47;61.86;98463.58;233193;1217;138437;-59
2022/04/03 05:02:09;;;;;;;8.80;5.50;;;;;;;1.49;61.80;98469.45;233200;1217;138784;-60
2022/04/03 05:07:12;;;;;;;9.00;5.00;;;;;;;1.51;61.84;98475.30;233306;1217;139431;-59
2022/04/03 05:12:16;;;;;;;12.30;5.60;;;;;;;1.52;61.67;98480.52;233277;1217;138547;-58
2022/04/03 05:17:19;;;;;;;8.60;5.30;;;;;;;1.52;61.60;98489.61;233225;1217;139067;-59
2022/04/03 05:22:23;;;;;;;10.00;5.40;;;;;;;1.45;61.33;98500.18;233437;1217;138813;-61
2022/04/03 05:27:26;;;;;;;54.80;33.20;;;;;;;1.41;61.46;98508.85;233257;1217;138366;-57
2022/04/03 05:32:31;;;;;;;14.60;7.80;;;;;;;1.50;61.70;98521.17;233234;1217;138891;-59
2022/04/03 05:37:36;;;;;;;12.70;6.60;;;;;;;1.59;61.51;98524.88;233435;1217;138563;-59
2022/04/03 05:42:39;;;;;;;13.70;5.60;;;;;;;1.58;61.35;98533.10;233370;1217;138399;-58
2022/04/03 05:47:42;;;;;;;10.20;5.00;;;;;;;1.55;61.08;98537.08;233203;1219;138842;-58
2022/04/03 05:52:49;;;;;;;10.10;4.80;;;;;;;1.52;60.83;98546.06;233313;1217;138453;-58
2022/04/03 05:57:53;;;;;;;8.80;4.60;;;;;;;1.53;60.90;98554.09;233372;1217;140060;-58
2022/04/03 06:02:58;;;;;;;10.50;5.10;;;;;;;1.47;60.56;98559.02;233360;1217;138274;-59
2022/04/03 06:08:02;;;;;;;143.60;88.40;;;;;;;1.44;60.64;98566.63;233095;1217;138553;-58
2022/04/03 06:13:09;;;;;;;19.00;8.60;;;;;;;1.54;60.91;98569.80;233385;1217;138831;-58
2022/04/03 06:18:14;;;;;;;9.60;5.70;;;;;;;1.58;60.65;98578.54;233330;1217;139906;-59
2022/04/03 06:23:20;;;;;;;10.20;5.30;;;;;;;1.54;60.24;98585.52;233331;1217;138636;-62
2022/04/03 06:28:24;;;;;;;8.70;4.60;;;;;;;1.56;60.40;98591.94;233481;1217;140125;-59
2022/04/03 06:33:27;;;;;;;9.40;5.40;;;;;;;1.60;60.40;98600.02;233328;1217;139788;-60
2022/04/03 06:38:30;;;;;;;9.50;5.40;;;;;;;1.74;60.60;98603.58;233303;1217;138228;-57
2022/04/03 06:43:34;;;;;;;10.10;5.80;;;;;;;1.77;60.20;98602.07;233308;1217;138178;-59
2022/04/03 06:48:37;;;;;;;37.30;21.00;;;;;;;1.90;60.73;98604.08;233284;1216;138723;-57
2022/04/03 06:53:40;;;;;;;14.40;7.80;;;;;;;2.13;60.52;98609.59;233271;1217;138591;-57
2022/04/03 06:58:43;;;;;;;9.60;5.40;;;;;;;2.15;59.81;98616.68;233216;1217;138864;-57
2022/04/03 07:03:46;;;;;;;8.20;4.70;;;;;;;2.19;59.86;98625.14;233529;1217;138593;-58
2022/04/03 07:08:49;;;;;;;13.20;6.90;;;;;;;2.22;59.89;98629.74;233361;1217;138168;-59
2022/04/03 07:13:52;;;;;;;10.40;5.70;;;;;;;2.34;59.83;98638.40;233342;1217;138916;-58
2022/04/03 07:18:56;;;;;;;11.00;5.30;;;;;;;2.43;59.60;98645.46;233406;1217;138427;-57
2022/04/03 07:23:59;;;;;;;10.50;5.50;;;;;;;2.50;59.52;98642.93;233363;1217;138333;-56
2022/04/03 07:29:03;;;;;;;10.40;5.30;;;;;;;2.56;59.25;98651.12;233300;1217;139427;-58
2022/04/03 07:34:06;;;;;;;324.80;213.60;;;;;;;2.64;59.29;98661.70;233566;1217;138839;-59
2022/04/03 07:39:09;;;;;;;18.30;8.80;;;;;;;2.80;59.41;98663.38;233363;1217;138931;-61
2022/04/03 07:44:12;;;;;;;10.10;6.30;;;;;;;2.87;58.97;98673.45;233368;1217;138621;-59
2022/04/03 07:49:17;;;;;;;11.00;5.80;;;;;;;2.92;58.46;98681.70;233244;1217;138168;-58
2022/04/03 07:54:20;;;;;;;11.80;5.90;;;;;;;2.90;58.37;98683.86;233378;1215;138269;-56
2022/04/03 07:59:23;;;;;;;14.10;5.90;;;;;;;2.94;58.31;98687.93;233399;1217;138908;-57
2022/04/03 08:04:26;;;;;;;8.60;4.70;;;;;;;2.95;58.00;98697.86;233246;1217;138486;-58
2022/04/03 08:09:30;;;;;;;8.20;5.30;;;;;;;2.94;57.84;98698.41;233241;1217;138527;-61
2022/04/03 08:14:33;;;;;;;14.00;5.90;;;;;;;2.97;57.91;98707.06;233134;1217;138183;-57
2022/04/03 08:19:36;;;;;;;12.30;6.10;;;;;;;3.11;57.79;98715.67;233290;1217;138688;-58
2022/04/03 08:24:39;;;;;;;14.20;5.70;;;;;;;3.14;57.26;98717.00;233245;1216;139925;-59
2022/04/03 08:29:43;;;;;;;11.40;4.80;;;;;;;3.20;57.40;98720.27;233246;1217;138399;-57
2022/04/03 08:34:49;;;;;;;9.30;4.80;;;;;;;3.25;57.28;98726.20;233086;1217;140398;-58
2022/04/03 08:39:54;;;;;;;12.90;7.20;;;;;;;3.39;57.37;98731.13;233328;1217;138040;-58
2022/04/03 08:44:58;;;;;;;9.20;5.30;;;;;;;3.76;57.59;98732.30;233269;1217;141219;-59
2022/04/03 08:50:01;;;;;;;8.20;4.30;;;;;;;3.81;56.75;98733.17;233231;1217;138793;-60
2022/04/03 08:55:05;;;;;;;7.70;4.70;;;;;;;3.90;56.67;98739.64;233331;1217;138303;-58
2022/04/03 09:00:09;;;;;;;6.70;3.90;;;;;;;4.04;56.18;98746.27;233389;1216;138728;-57
2022/04/03 09:05:14;;;;;;;8.30;3.60;;;;;;;4.11;55.72;98745.15;233598;1217;138871;-58
2022/04/03 09:10:17;;;;;;;7.10;3.60;;;;;;;4.08;55.51;98753.85;233326;1217;139083;-57
2022/04/03 09:15:22;;;;;;;8.60;4.00;;;;;;;4.01;55.39;98759.91;233354;1217;138823;-57
2022/04/03 09:20:30;;;;;;;6.50;4.10;;;;;;;4.05;54.77;98768.05;233261;1217;139029;-56
2022/04/03 09:25:35;;;;;;;8.40;3.70;;;;;;;4.12;54.55;98765.45;233345;1217;138136;-57
2022/04/03 09:30:43;;;;;;;9.60;6.30;;;;;;;4.39;55.54;98768.40;233371;1217;140722;-58
2022/04/03 09:36:03;;;;;;;11.40;5.30;;;;;;;4.72;54.57;98775.78;233345;1217;139848;-59
2022/04/03 09:41:07;;;;;;;6.70;3.90;;;;;;;4.81;54.07;98777.88;233391;1217;139756;-58
2022/04/03 09:46:12;;;;;;;10.20;5.70;;;;;;;4.95;54.10;98780.62;233445;1217;139389;-58
2022/04/03 09:51:26;;;;;;;8.00;4.40;;;;;;;4.96;53.60;98788.98;233237;1217;138513;-57
2022/04/03 09:56:32;;;;;;;7.10;3.80;;;;;;;4.95;53.21;98787.98;233297;1217;138740;-56
2022/04/03 10:01:35;;;;;;;;;;;;;;;4.94;53.13;98789.27;233209;1217;139113;-57
2022/04/03 10:06:39;;;;;;;71.30;46.80;;;;;;;5.08;53.46;98796.02;233390;1216;126296;-55
2022/04/03 10:11:42;;;;;;;11.60;5.50;;;;;;;5.20;52.85;98804.66;233243;1217;138913;-56
2022/04/03 10:16:45;;;;;;;7.50;4.30;;;;;;;5.30;52.81;98805.98;233224;1217;138765;-56
2022/04/03 10:21:53;;;;;;;6.00;3.80;;;;;;;5.48;52.50;98806.90;233110;1217;139135;-56
2022/04/03 10:27:06;;;;;;;6.20;3.90;;;;;;;5.67;52.17;98807.11;233389;1217;138246;-56
2022/04/03 10:32:22;;;;;;;7.20;4.60;;;;;;;5.79;51.47;98810.10;233308;1217;139247;-57
2022/04/03 10:37:40;;;;;;;7.10;3.80;;;;;;;5.83;51.41;98815.87;233263;1217;139238;-56
2022/04/03 10:42:53;;;;;;;7.80;4.00;;;;;;;5.91;51.17;98818.00;233311;1216;139313;-57
2022/04/03 10:48:20;;;;;;;7.60;4.60;;;;;;;5.90;51.01;98818.37;233369;1216;138408;-56
2022/04/03 10:53:27;;;;;;;7.20;4.00;;;;;;;6.01;51.18;98816.12;233322;1217;138935;-57
2022/04/03 10:58:42;;;;;;;10.80;5.00;;;;;;;6.08;51.33;98815.09;233325;1217;138324;-54
2022/04/03 11:03:53;;;;;;;8.10;4.30;;;;;;;6.18;50.89;98816.39;233230;1217;138471;-56
2022/04/03 11:09:13;;;;;;;40.70;15.00;;;;;;;6.28;50.87;98823.11;233226;1217;139472;-56
2022/04/03 11:14:50;;;;;;;11.50;4.90;;;;;;;6.44;50.83;98817.58;233125;1217;138607;-57
2022/04/03 11:19:58;;;;;;;7.10;4.20;;;;;;;6.50;50.81;98825.39;233136;1217;139769;-59
2022/04/03 11:25:02;;;;;;;8.10;4.10;;;;;;;6.35;50.51;98824.90;233256;1217;138656;-57
2022/04/03 11:30:05;;;;;;;8.20;4.30;;;;;;;6.36;50.32;98824.84;233250;1217;138739;-56
2022/04/03 11:35:09;;;;;;;8.00;4.60;;;;;;;6.42;50.54;98827.70;233196;1216;138182;-57
2022/04/03 11:40:12;;;;;;;7.70;4.20;;;;;;;6.28;50.01;98829.45;233519;1216;140106;-57
2022/04/03 11:45:20;;;;;;;6.90;4.50;;;;;;;6.27;49.98;98827.06;233288;1217;139270;-56
2022/04/03 11:50:23;;;;;;;8.20;4.10;;;;;;;6.40;49.80;98827.48;233213;1217;138417;-57
2022/04/03 11:55:35;;;;;;;153.70;80.70;;;;;;;6.45;49.56;98829.88;233263;1217;138697;-60
2022/04/03 12:00:46;;;;;;;9.00;5.30;;;;;;;6.30;49.26;98824.28;233286;1216;138642;-60
2022/04/03 12:05:49;;;;;;;8.10;4.20;;;;;;;6.22;49.51;98827.46;233196;1215;138648;-57
2022/04/03 12:10:52;;;;;;;7.10;4.10;;;;;;;6.08;49.35;98835.71;233103;1217;138748;-58
2022/04/03 12:15:55;;;;;;;7.00;4.60;;;;;;;6.07;49.59;98835.60;233326;1216;138253;-57
2022/04/03 12:21:00;;;;;;;35.90;18.80;;;;;;;6.48;51.60;98835.90;233153;1217;138643;-62
2022/04/03 12:26:03;;;;;;;10.50;6.30;;;;;;;7.10;51.72;98836.17;233181;1217;138579;-60
2022/04/03 12:31:12;;;;;;;8.70;4.10;;;;;;;7.37;50.58;98838.66;233227;1215;138205;-60
2022/04/03 12:36:16;;;;;;;8.40;4.40;;;;;;;7.37;49.34;98837.03;233222;1217;139668;-58
2022/04/03 12:41:21;;;;;;;8.90;4.20;;;;;;;7.38;49.40;98831.23;233254;1217;138592;-57
2022/04/03 12:46:36;;;;;;;7.40;4.50;;;;;;;7.13;48.41;98832.45;233382;1217;139390;-58
2022/04/03 12:51:44;;;;;;;7.50;3.80;;;;;;;6.66;48.00;98840.31;233159;1217;139441;-59
2022/04/03 13:02:10;;;;;;;5.30;3.50;;;;;;;6.19;48.03;98846.45;233280;1217;138913;-59
2022/04/03 13:07:22;;;;;;;7.30;3.10;;;;;;;6.10;47.47;98846.54;233320;1216;138437;-59
2022/04/03 13:12:27;;;;;;;6.20;3.10;;;;;;;5.98;47.08;98837.41;233611;1217;138452;-59
2022/04/03 13:17:30;;;;;;;20.30;13.20;;;;;;;5.89;46.67;98843.09;233588;1216;138274;-60
2022/04/03 13:22:33;;;;;;;9.80;4.00;;;;;;;5.88;47.32;98846.65;233958;1217;138802;-59
2022/04/03 13:27:36;;;;;;;6.40;4.00;;;;;;;5.98;47.56;98846.02;233700;1216;137792;-58
2022/04/03 13:32:40;;;;;;;8.20;5.00;;;;;;;6.07;47.45;98842.80;233455;1216;138887;-60
2022/04/03 13:37:43;;;;;;;9.20;4.60;;;;;;;6.10;47.40;98846.19;233597;1217;138330;-59
2022/04/03 13:42:46;;;;;;;219.00;155.20;;;;;;;5.92;47.20;98848.40;233760;1216;138997;-60
2022/04/03 13:47:51;;;;;;;13.80;7.10;;;;;;;5.80;48.13;98855.13;233711;1216;139339;-57
2022/04/03 13:52:54;;;;;;;6.70;4.80;;;;;;;5.86;48.26;98859.06;233752;1216;140330;-58
2022/04/03 13:57:57;;;;;;;8.30;4.30;;;;;;;5.86;47.99;98862.89;233918;1216;138167;-61
2022/04/03 14:03:01;;;;;;;9.30;4.10;;;;;;;5.78;47.63;98866.09;233810;1215;138160;-60
2022/04/03 14:08:05;;;;;;;87.90;63.20;;;;;;;5.63;48.19;98874.88;233758;1217;139009;-61
2022/04/03 14:13:08;;;;;;;10.90;5.90;;;;;;;5.54;48.09;98879.31;233533;1217;138981;-59
2022/04/03 14:18:12;;;;;;;7.90;4.20;;;;;;;5.47;48.03;98877.36;233767;1216;138672;-60
2022/04/03 14:23:17;;;;;;;6.60;4.00;;;;;;;5.38;47.93;98878.95;233910;1215;138410;-57
2022/04/03 14:28:21;;;;;;;6.80;4.10;;;;;;;5.21;47.81;98882.50;233922;1217;138408;-59
2022/04/03 14:33:25;;;;;;;6.00;3.50;;;;;;;5.19;47.89;98884.91;233750;1216;138387;-59
2022/04/03 14:38:28;;;;;;;7.10;3.90;;;;;;;5.23;47.85;98888.09;233766;1217;140560;-58
2022/04/03 14:43:31;;;;;;;8.10;4.40;;;;;;;5.18;47.89;98889.30;233908;1216;138479;-59
2022/04/03 14:48:34;;;;;;;7.80;4.20;;;;;;;4.98;47.91;98895.80;233723;1217;138408;-58
2022/04/03 14:53:37;;;;;;;7.10;4.10;;;;;;;4.91;48.39;98892.73;233876;1217;138416;-59
2022/04/03 14:58:41;;;;;;;7.20;4.30;;;;;;;4.82;47.88;98898.04;233812;1217;138408;-59
2022/04/03 15:03:44;;;;;;;5.90;3.40;;;;;;;4.73;47.73;98903.32;233761;1216;138856;-60
2022/04/03 15:08:47;;;;;;;38.20;20.20;;;;;;;4.64;47.67;98903.86;233814;1216;137996;-60
2022/04/03 15:13:51;;;;;;;9.60;5.00;;;;;;;4.77;48.27;98901.08;233739;1217;139617;-60
2022/04/03 15:18:54;;;;;;;7.50;4.50;;;;;;;4.77;47.93;98903.17;233737;1216;138325;-59
2022/04/03 15:23:58;;;;;;;10.70;4.40;;;;;;;4.67;47.80;98909.35;233838;1217;138532;-61
2022/04/03 15:29:03;;;;;;;10.80;6.20;;;;;;;4.59;47.86;98916.04;233699;1217;139228;-58
2022/04/03 15:34:07;;;;;;;9.40;6.10;;;;;;;4.45;49.11;98932.38;233975;1216;138615;-62
2022/04/03 15:39:10;;;;;;;13.70;6.00;;;;;;;4.27;49.87;98934.13;233749;1217;138306;-59
2022/04/03 15:44:16;;;;;;;12.00;5.80;;;;;;;4.09;49.99;98937.61;233779;1216;139260;-61
2022/04/03 15:49:19;;;;;;;11.00;5.60;;;;;;;3.91;50.21;98937.58;233732;1217;138729;-61
2022/04/03 15:54:22;;;;;;;9.20;5.70;;;;;;;3.87;50.25;98936.33;233691;1217;138558;-59
2022/04/03 15:59:26;;;;;;;10.40;5.80;;;;;;;3.82;50.19;98937.39;233581;1216;139248;-61
2022/04/03 16:04:35;;;;;;;13.70;6.10;;;;;;;3.80;50.25;98934.63;233872;1216;138194;-61
2022/04/03 16:09:39;;;;;;;8.40;5.40;;;;;;;3.92;50.52;98941.58;233669;1217;138364;-62
2022/04/03 16:14:43;;;;;;;7.90;4.70;;;;;;;4.01;50.02;98938.09;233678;1217;137911;-58
2022/04/03 16:19:48;;;;;;;7.50;4.30;;;;;;;4.08;49.53;98942.23;233942;1217;138259;-59
2022/04/03 16:24:51;;;;;;;205.10;133.80;;;;;;;4.24;50.14;98944.96;233839;1217;138281;-57
2022/04/03 16:29:54;;;;;;;18.00;9.90;;;;;;;4.62;50.46;98948.06;233930;1216;140571;-58
2022/04/03 16:34:57;;;;;;;11.30;5.30;;;;;;;4.43;49.14;98960.92;233763;1217;139154;-61
2022/04/03 16:40:00;;;;;;;9.80;5.40;;;;;;;4.19;49.18;98962.52;233950;1216;138777;-60
2022/04/03 16:45:08;;;;;;;9.80;5.50;;;;;;;3.95;49.22;98966.90;233716;1216;138677;-59
2022/04/03 16:50:11;;;;;;;11.70;6.00;;;;;;;3.78;49.50;98973.14;233689;1216;138817;-57
2022/04/03 16:55:14;;;;;;;12.40;6.20;;;;;;;3.68;49.54;98975.25;233889;1217;139544;-59
2022/04/03 17:00:17;;;;;;;12.00;6.00;;;;;;;3.60;49.83;98978.86;233860;1216;138806;-58
2022/04/03 17:05:20;;;;;;;14.10;6.40;;;;;;;3.55;49.92;98984.10;233642;1216;139205;-59
2022/04/03 17:10:24;;;;;;;13.20;6.50;;;;;;;3.51;49.81;98984.79;233831;1216;138308;-61
2022/04/03 17:15:27;;;;;;;13.60;6.90;;;;;;;3.46;49.78;98996.19;233973;1216;138258;-61
2022/04/03 17:20:31;;;;;;;10.60;6.10;;;;;;;3.41;49.88;99003.55;233990;1217;138317;-57
2022/04/03 17:25:34;;;;;;;12.30;6.20;;;;;;;3.39;49.78;99004.64;233960;1217;138893;-60
2022/04/03 17:30:37;;;;;;;12.20;7.20;;;;;;;3.32;49.72;99009.80;233881;1217;139569;-59
2022/04/03 17:35:41;;;;;;;400.20;298.60;;;;;;;3.30;50.03;99021.59;233918;1217;138443;-59
2022/04/03 17:40:44;;;;;;;32.00;16.60;;;;;;;3.44;50.54;99027.64;234050;1217;139599;-61
2022/04/03 17:45:47;;;;;;;18.70;9.50;;;;;;;3.42;50.09;99036.30;233963;1216;138722;-59
2022/04/03 17:50:50;;;;;;;19.90;8.50;;;;;;;3.33;50.14;99042.19;234013;1216;138482;-60
2022/04/03 17:55:54;;;;;;;18.40;8.30;;;;;;;3.24;50.24;99048.63;233852;1217;138467;-60
2022/04/03 18:00:57;;;;;;;19.30;8.60;;;;;;;3.16;50.41;99052.73;233935;1217;139284;-60
2022/04/03 18:06:01;;;;;;;17.70;8.80;;;;;;;3.12;50.61;99056.92;233933;1216;138272;-60
2022/04/03 18:11:08;;;;;;;16.10;8.20;;;;;;;3.07;50.78;99057.22;233763;1216;138308;-59
2022/04/03 18:16:14;;;;;;;16.40;8.50;;;;;;;3.03;51.05;99061.91;233884;1217;138942;-57
2022/04/03 18:21:18;;;;;;;18.40;8.80;;;;;;;3.04;51.20;99066.25;233957;1216;138340;-58
2022/04/03 18:26:23;;;;;;;18.60;9.40;;;;;;;3.06;51.22;99072.67;234000;1217;139750;-60
2022/04/03 18:31:27;;;;;;;18.40;9.50;;;;;;;3.06;51.24;99077.23;233620;1217;138241;-60
2022/04/03 18:36:30;;;;;;;74.20;49.80;;;;;;;3.14;51.88;99079.79;233905;1216;138284;-56
2022/04/03 18:41:33;;;;;;;21.50;12.70;;;;;;;3.45;52.54;99082.14;233908;1216;138442;-56
2022/04/03 18:46:36;;;;;;;16.10;9.60;;;;;;;3.52;51.39;99084.20;234002;1216;138467;-56
2022/04/03 18:51:40;;;;;;;27.60;16.90;;;;;;;3.44;50.97;99090.77;233809;1217;137887;-57
2022/04/03 18:56:43;;;;;;;17.30;9.90;;;;;;;3.42;50.94;99096.64;233794;1217;138617;-58
2022/04/03 19:01:47;;;;;;;17.90;9.50;;;;;;;3.36;50.67;99099.11;233803;1217;138974;-58
2022/04/03 19:06:54;;;;;;;19.30;9.40;;;;;;;3.30;50.62;99100.32;233887;1217;138908;-59
2022/04/03 19:11:59;;;;;;;17.60;9.20;;;;;;;3.29;50.66;99100.72;233751;1217;138733;-57
2022/04/03 19:17:06;;;;;;;20.50;10.60;;;;;;;3.25;50.61;99101.02;233953;1217;138633;-58
2022/04/03 19:22:12;;;;;;;18.20;9.60;;;;;;;3.16;50.58;99104.62;233451;1217;138941;-58
2022/04/03 19:27:15;;;;;;;20.00;9.60;;;;;;;3.14;50.65;99099.27;233621;1217;138695;-58
2022/04/03 19:32:18;;;;;;;21.70;11.70;;;;;;;3.15;50.67;99104.83;233964;1217;138489;-59
2022/04/03 19:37:22;;;;;;;22.10;11.10;;;;;;;3.16;50.63;99103.40;234064;1217;138677;-58
2022/04/03 19:42:28;;;;;;;21.20;11.00;;;;;;;3.15;50.58;99104.13;233850;1217;138586;-58
2022/04/03 19:47:31;;;;;;;22.40;11.50;;;;;;;3.15;50.61;99108.52;233827;1217;138647;-59
2022/04/03 19:52:35;;;;;;;18.80;10.60;;;;;;;3.14;50.56;99112.23;233879;1217;138660;-59
2022/04/03 19:57:38;;;;;;;20.80;10.80;;;;;;;3.09;50.58;99111.34;233862;1217;138387;-58
2022/04/03 20:02:42;;;;;;;22.60;11.40;;;;;;;3.01;50.57;99112.80;233887;1216;138748;-59
2022/04/03 20:07:47;;;;;;;21.50;11.50;;;;;;;2.99;50.78;99115.31;233572;1217;138446;-59
2022/04/03 20:12:50;;;;;;;23.10;11.00;;;;;;;2.94;50.82;99116.15;233832;1217;138592;-59
2022/04/03 20:17:53;;;;;;;21.10;11.10;;;;;;;2.95;50.94;99120.86;233868;1216;138857;-59
2022/04/03 20:22:57;;;;;;;17.90;10.20;;;;;;;2.95;50.89;99123.48;233898;1217;138548;-59
2022/04/03 20:28:00;;;;;;;19.20;10.30;;;;;;;2.91;50.93;99124.66;234058;1217;138341;-58
2022/04/03 20:33:03;;;;;;;20.70;11.20;;;;;;;2.91;50.88;99127.13;233905;1217;139060;-58
2022/04/03 20:38:06;;;;;;;18.30;10.50;;;;;;;2.91;51.22;99128.35;233758;1217;139194;-59
2022/04/03 20:43:10;;;;;;;21.00;11.20;;;;;;;2.91;51.15;99126.96;233952;1217;138259;-58
2022/04/03 20:48:12;;;;;;;20.90;10.40;;;;;;;2.89;51.20;99127.35;234023;1217;139213;-57
2022/04/03 20:53:16;;;;;;;18.50;10.50;;;;;;;2.83;51.19;99135.41;234045;1217;138719;-58
2022/04/03 20:58:19;;;;;;;19.30;10.80;;;;;;;2.79;51.39;99141.11;233969;1217;138762;-60
2022/04/03 21:03:22;;;;;;;21.90;10.80;;;;;;;2.78;51.55;99139.25;233875;1217;139461;-60
2022/04/03 21:08:26;;;;;;;23.60;12.10;;;;;;;2.81;51.60;99139.67;233236;1217;138941;-57
2022/04/03 21:13:29;;;;;;;20.50;10.40;;;;;;;2.86;51.60;99134.27;233108;1217;139029;-59
2022/04/03 21:18:32;;;;;;;20.40;10.90;;;;;;;2.84;51.48;99136.08;233220;1217;138915;-59
2022/04/03 21:23:35;;;;;;;21.70;11.70;;;;;;;2.81;51.44;99142.66;233280;1217;139098;-59
2022/04/03 21:28:38;;;;;;;21.90;10.60;;;;;;;2.75;51.48;99142.83;233451;1217;138703;-59
2022/04/03 21:33:42;;;;;;;22.90;12.20;;;;;;;2.72;51.63;99141.70;233303;1217;138081;-59
2022/04/03 21:38:45;;;;;;;31.80;14.10;;;;;;;2.72;51.68;99147.30;233216;1217;138830;-59
2022/04/03 21:43:48;;;;;;;26.60;14.10;;;;;;;2.72;51.70;99144.15;233319;1217;138670;-59
2022/04/03 21:48:51;;;;;;;31.30;14.30;;;;;;;2.76;51.76;99146.13;233341;1216;138680;-59
2022/04/03 21:53:54;;;;;;;27.50;14.70;;;;;;;2.76;51.67;99147.34;233390;1216;139332;-59
2022/04/03 21:58:58;;;;;;;27.40;14.80;;;;;;;2.75;51.75;99148.09;233287;1217;140223;-61
2022/04/03 22:04:01;;;;;;;29.80;15.80;;;;;;;2.70;51.81;99148.05;233284;1215;139618;-60
2022/04/03 22:09:05;;;;;;;32.00;16.50;;;;;;;2.66;51.87;99144.68;233149;1217;138895;-59
2022/04/03 22:14:07;;;;;;;36.00;17.60;;;;;;;2.65;52.07;99148.91;233343;1217;140777;-59
2022/04/03 22:19:11;;;;;;;30.50;16.60;;;;;;;2.69;52.09;99147.41;233374;1216;138343;-59
2022/04/03 22:24:13;;;;;;;32.50;17.20;;;;;;;2.68;52.13;99150.73;233340;1217;138475;-59
2022/04/03 22:29:17;;;;;;;31.60;17.30;;;;;;;2.66;52.26;99148.70;233227;1217;138973;-58
2022/04/03 22:34:20;;;;;;;33.80;18.10;;;;;;;2.63;52.33;99148.97;233427;1217;138815;-59
2022/04/03 22:39:23;;;;;;;37.40;19.50;;;;;;;2.58;52.50;99146.64;233233;1217;138931;-59
2022/04/03 22:44:26;;;;;;;31.90;17.50;;;;;;;2.53;52.52;99143.80;233271;1217;139029;-58
2022/04/03 22:49:28;;;;;;;36.30;19.60;;;;;;;2.49;52.85;99141.45;233260;1217;138544;-58
2022/04/03 22:54:32;;;;;;;34.60;19.20;;;;;;;2.47;52.81;99140.98;233343;1217;138269;-59
2022/04/03 22:59:35;;;;;;;37.10;18.70;;;;;;;2.48;52.92;99143.42;233287;1215;138427;-59
2022/04/03 23:04:38;;;;;;;37.90;19.00;;;;;;;2.48;53.07;99135.52;233436;1217;138693;-58
2022/04/03 23:09:41;;;;;;;35.00;19.20;;;;;;;2.53;53.08;99135.92;233146;1217;138824;-57
2022/04/03 23:14:44;;;;;;;31.00;18.10;;;;;;;2.55;53.05;99134.47;233298;1217;139088;-60
2022/04/03 23:19:47;;;;;;;38.70;18.60;;;;;;;2.56;53.25;99135.15;233252;1217;139024;-59
2022/04/03 23:24:50;;;;;;;34.30;18.30;;;;;;;2.57;53.23;99138.06;233330;1217;138742;-58